createdAt,value
2023-12-03T00:01:03.748Z,9.25
2023-12-03T00:06:25.773Z,10.75
2023-12-03T00:11:27.881Z,8.00
2023-12-03T00:16:29.739Z,8.25
2023-12-03T00:21:31.638Z,9.50
2023-12-03T00:26:33.552Z,9.00
2023-12-03T00:31:35.575Z,8.00
2023-12-03T00:36:37.616Z,8.50
2023-12-03T00:41:39.746Z,9.00
2023-12-03T00:46:41.619Z,8.50
2023-12-03T00:51:43.609Z,9.75
2023-12-03T00:56:45.967Z,10.00
2023-12-03T01:01:47.961Z,10.00
2023-12-03T01:06:50.430Z,10.00
2023-12-03T01:11:56.590Z,10.00
2023-12-03T01:16:58.557Z,10.75
2023-12-03T01:22:00.384Z,11.67
2023-12-03T01:27:02.332Z,9.00
2023-12-03T01:32:04.587Z,10.75
2023-12-03T01:37:06.534Z,11.67
2023-12-03T01:42:08.668Z,9.75
2023-12-03T01:47:10.632Z,10.25
2023-12-03T01:52:12.545Z,9.50
2023-12-03T01:57:15.636Z,11.00
2023-12-03T02:02:17.639Z,13.50
2023-12-03T02:07:19.718Z,9.00
2023-12-03T02:12:21.706Z,11.00
2023-12-03T02:17:23.613Z,9.50
2023-12-03T02:22:25.599Z,10.75
2023-12-03T02:27:27.544Z,10.00
2023-12-03T02:32:29.599Z,9.25
2023-12-03T02:37:31.526Z,10.00
2023-12-03T02:42:33.468Z,10.67
2023-12-03T02:47:35.374Z,8.25
2023-12-03T02:52:37.293Z,10.33
2023-12-03T02:57:39.328Z,9.00
2023-12-03T03:02:41.407Z,8.50
2023-12-03T03:07:43.241Z,9.00
2023-12-03T03:12:45.253Z,9.33
2023-12-03T03:17:47.316Z,11.00
2023-12-03T03:22:49.880Z,8.00
2023-12-03T03:27:51.834Z,9.67
2023-12-03T03:32:54.339Z,9.33
2023-12-03T03:37:56.625Z,11.50
2023-12-03T03:42:58.527Z,11.00
2023-12-03T03:48:00.420Z,9.50
2023-12-03T03:53:02.316Z,10.75
2023-12-03T03:58:04.294Z,10.33
2023-12-03T04:03:06.328Z,9.33
2023-12-03T04:08:08.446Z,10.50
2023-12-03T04:13:10.349Z,10.00
2023-12-03T04:18:12.498Z,8.67
2023-12-03T04:23:14.650Z,9.75
2023-12-03T04:28:16.559Z,10.33
2023-12-03T04:33:18.432Z,9.00
2023-12-03T04:38:20.459Z,10.00
2023-12-03T04:43:22.341Z,8.33
2023-12-03T04:48:24.295Z,10.00
2023-12-03T04:53:26.328Z,9.00
2023-12-03T04:58:28.265Z,9.25
2023-12-03T05:03:30.245Z,10.50
2023-12-03T05:08:32.396Z,9.50
2023-12-03T05:13:34.376Z,9.50
2023-12-03T05:18:36.336Z,11.00
2023-12-03T05:23:38.407Z,8.00
2023-12-03T05:28:40.357Z,9.00
2023-12-03T05:33:42.776Z,10.00
2023-12-03T05:38:44.777Z,8.75
2023-12-03T05:43:46.842Z,8.25
2023-12-03T05:48:48.816Z,9.00
2023-12-03T05:53:50.798Z,10.25
2023-12-03T05:58:52.693Z,9.00
2023-12-03T06:03:54.637Z,10.33
2023-12-03T06:08:56.620Z,9.00
2023-12-03T06:13:59.019Z,8.67
2023-12-03T06:19:01.046Z,8.67
2023-12-03T06:24:03.228Z,11.00
2023-12-03T06:29:05.120Z,7.75
2023-12-03T06:34:07.707Z,10.67
2023-12-03T06:39:09.870Z,7.67
2023-12-03T06:44:11.722Z,9.00
2023-12-03T06:49:13.652Z,9.75
2023-12-03T06:54:15.563Z,8.50
2023-12-03T06:59:17.479Z,9.33
2023-12-03T07:04:19.423Z,8.25
2023-12-03T07:09:37.264Z,9.25
2023-12-03T07:14:41.923Z,11.67
2023-12-03T07:19:44.609Z,9.00
2023-12-03T07:24:46.957Z,10.50
2023-12-03T07:29:53.250Z,9.33
2023-12-03T07:34:55.297Z,10.00
2023-12-03T07:39:57.428Z,10.00
2023-12-03T07:44:59.352Z,10.00
2023-12-03T07:50:01.609Z,8.67
2023-12-03T07:55:03.862Z,11.00
2023-12-03T08:00:07.002Z,9.00
2023-12-03T08:05:14.502Z,9.00
2023-12-03T08:10:16.496Z,8.67
2023-12-03T08:15:19.163Z,9.33
2023-12-03T08:20:21.183Z,9.00
2023-12-03T08:25:23.399Z,9.50
2023-12-03T08:30:26.468Z,8.75
2023-12-03T08:35:28.567Z,8.50
2023-12-03T08:40:31.475Z,8.33
2023-12-03T08:45:33.915Z,8.67
2023-12-03T08:50:35.987Z,9.00
2023-12-03T08:55:38.302Z,9.25
2023-12-03T09:00:43.329Z,10.00
2023-12-03T09:05:45.325Z,9.33
2023-12-03T09:10:48.291Z,9.67
2023-12-03T09:15:51.630Z,8.33
2023-12-03T09:20:56.668Z,9.75
2023-12-03T09:25:58.610Z,9.67
2023-12-03T09:31:00.574Z,9.00
2023-12-03T09:36:03.652Z,10.00
2023-12-03T09:41:10.707Z,11.00
2023-12-03T09:46:15.812Z,9.75
2023-12-03T09:51:19.051Z,10.00
2023-12-03T09:56:23.820Z,7.00
2023-12-03T10:01:28.570Z,7.50
2023-12-03T10:06:30.599Z,9.67
2023-12-03T10:11:41.388Z,10.00
2023-12-03T10:16:49.792Z,11.75
2023-12-03T10:21:52.059Z,10.25
2023-12-03T10:27:00.134Z,11.67
2023-12-03T10:32:02.931Z,10.25
2023-12-03T10:37:07.782Z,10.00
2023-12-03T10:42:10.800Z,10.25
2023-12-03T10:47:13.580Z,10.33
2023-12-03T10:52:15.561Z,9.33
2023-12-03T10:57:17.593Z,8.67
2023-12-03T11:02:19.559Z,9.33
2023-12-03T11:07:21.724Z,9.00
2023-12-03T11:12:23.746Z,9.33
2023-12-03T11:17:32.343Z,9.67
2023-12-03T11:22:58.167Z,8.67
2023-12-03T11:28:01.481Z,10.00
2023-12-03T11:33:12.667Z,9.00
2023-12-03T11:38:19.848Z,9.00
2023-12-03T11:43:26.736Z,10.00
2023-12-03T11:48:31.253Z,9.25
2023-12-03T11:53:44.627Z,9.33
2023-12-03T11:58:50.790Z,8.00
2023-12-03T12:03:55.107Z,7.50
2023-12-03T12:08:58.998Z,8.00
2023-12-03T12:14:02.210Z,9.50
2023-12-03T12:19:07.653Z,9.33
2023-12-03T12:24:09.794Z,10.00
2023-12-03T12:29:12.745Z,7.50
2023-12-03T12:34:16.380Z,9.00
2023-12-03T12:39:28.530Z,8.00
2023-12-03T12:44:46.958Z,9.00
2023-12-03T12:49:53.804Z,9.75
2023-12-03T12:55:03.618Z,7.75
2023-12-03T13:00:13.942Z,8.00
2023-12-03T13:05:17.263Z,9.50
2023-12-03T13:10:20.450Z,9.00
2023-12-03T13:15:27.467Z,8.75
2023-12-03T13:20:31.377Z,8.75
2023-12-03T13:25:33.291Z,7.75
2023-12-03T13:30:38.025Z,9.00
2023-12-03T13:35:42.556Z,8.00
2023-12-03T13:40:46.890Z,7.75
2023-12-03T13:45:51.336Z,7.00
2023-12-03T13:50:53.273Z,8.50
2023-12-03T13:55:56.843Z,9.33
2023-12-03T14:01:01.337Z,8.33
2023-12-03T14:06:06.676Z,8.50
2023-12-03T14:11:08.618Z,9.00
2023-12-03T14:16:10.852Z,8.67
2023-12-03T14:21:15.605Z,8.00
2023-12-03T14:26:17.842Z,8.67
2023-12-03T14:31:20.241Z,7.00
2023-12-03T14:36:26.760Z,8.00
2023-12-03T14:41:33.210Z,7.50
2023-12-03T14:46:38.335Z,6.50
2023-12-03T14:51:43.602Z,5.75
2023-12-03T14:56:45.782Z,7.33
2023-12-03T15:01:47.864Z,8.50
2023-12-03T15:06:57.422Z,9.25
2023-12-03T15:12:01.964Z,6.00
2023-12-03T15:17:06.794Z,7.75
2023-12-03T15:22:09.965Z,8.00
2023-12-03T15:27:16.336Z,8.50
2023-12-03T15:32:18.503Z,8.00
2023-12-03T15:37:20.484Z,8.33
2023-12-03T15:42:24.083Z,6.67
2023-12-03T15:47:29.815Z,6.75
2023-12-03T15:52:31.757Z,8.33
2023-12-03T15:57:33.772Z,7.00
2023-12-03T16:02:35.909Z,7.67
2023-12-03T16:07:39.980Z,8.33
2023-12-03T16:12:42.036Z,7.75
2023-12-03T16:17:47.397Z,8.00
2023-12-03T16:22:50.640Z,8.67
2023-12-03T16:27:55.711Z,8.00
2023-12-03T16:32:59.213Z,6.33
2023-12-03T16:38:04.422Z,8.00
2023-12-03T16:43:06.573Z,7.75
2023-12-03T16:48:09.082Z,7.33
2023-12-03T16:53:13.839Z,8.33
2023-12-03T16:58:18.414Z,8.00
2023-12-03T17:03:22.500Z,7.50
2023-12-03T17:08:24.525Z,7.00
2023-12-03T17:13:26.867Z,7.00
2023-12-03T17:18:29.666Z,8.00
2023-12-03T17:23:31.984Z,7.75
2023-12-03T17:28:34.549Z,9.25
2023-12-03T17:33:36.735Z,7.00
2023-12-03T17:38:39.119Z,8.00
2023-12-03T17:43:42.403Z,7.00
2023-12-03T17:48:47.839Z,7.75
2023-12-03T17:53:52.817Z,8.25
2023-12-03T17:58:55.143Z,9.00
2023-12-03T18:03:57.637Z,8.67
2023-12-03T18:08:59.607Z,7.00
2023-12-03T18:14:05.617Z,7.00
2023-12-03T18:19:10.147Z,7.33
2023-12-03T18:24:12.680Z,7.67
2023-12-03T18:29:14.695Z,6.33
2023-12-03T18:34:16.598Z,7.33
2023-12-03T18:39:19.451Z,7.00
2023-12-03T18:44:29.619Z,7.25
2023-12-03T18:49:34.505Z,7.67
2023-12-03T18:54:41.466Z,6.00
2023-12-03T18:59:43.944Z,6.33
2023-12-03T19:04:48.420Z,7.00
2023-12-03T19:09:50.487Z,8.33
2023-12-03T19:14:52.645Z,6.75
2023-12-03T19:19:57.603Z,6.00
2023-12-03T19:25:02.473Z,6.00
2023-12-03T19:30:07.472Z,5.67
2023-12-03T19:35:12.144Z,7.25
2023-12-03T19:40:14.271Z,7.33
2023-12-03T19:45:16.334Z,7.25
2023-12-03T19:50:18.491Z,7.50
2023-12-03T19:55:20.381Z,7.33
2023-12-03T20:00:22.326Z,7.33
2023-12-03T20:05:24.426Z,7.67
2023-12-03T20:10:28.856Z,6.33
2023-12-03T20:15:40.741Z,5.00
2023-12-03T20:20:52.084Z,6.67
2023-12-03T20:25:54.054Z,7.00
2023-12-03T20:30:56.101Z,7.25
2023-12-03T20:35:59.116Z,6.50
2023-12-03T20:41:02.852Z,6.75
2023-12-03T20:46:05.398Z,7.67
2023-12-03T20:51:09.324Z,7.67
2023-12-03T20:56:11.409Z,9.00
2023-12-03T21:01:13.400Z,6.25
2023-12-03T21:06:17.693Z,7.00
2023-12-03T21:11:22.453Z,5.33
2023-12-03T21:16:24.831Z,6.75
2023-12-03T21:21:27.240Z,8.00
2023-12-03T21:26:29.182Z,6.00
2023-12-03T21:31:31.236Z,8.33
2023-12-03T21:36:37.642Z,5.67
2023-12-03T21:41:40.169Z,7.33
2023-12-03T21:46:42.048Z,7.00
2023-12-03T21:51:44.179Z,5.67
2023-12-03T21:56:46.006Z,6.00
2023-12-03T22:01:47.972Z,5.75
2023-12-03T22:06:49.899Z,6.33
2023-12-03T22:11:51.784Z,7.00
2023-12-03T22:16:53.639Z,7.00
2023-12-03T22:21:55.816Z,6.00
2023-12-03T22:26:57.677Z,8.00
2023-12-03T22:31:59.740Z,7.33
2023-12-03T22:37:01.696Z,7.00
2023-12-03T22:42:04.367Z,8.00
2023-12-03T22:47:06.563Z,5.67
2023-12-03T22:52:08.873Z,5.33
2023-12-03T22:57:11.094Z,6.67
2023-12-03T23:02:12.992Z,7.00
2023-12-03T23:07:14.863Z,6.75
2023-12-03T23:12:16.864Z,7.00
2023-12-03T23:17:18.754Z,6.67
2023-12-03T23:22:20.796Z,5.67
2023-12-03T23:27:22.657Z,4.33
2023-12-03T23:32:24.581Z,6.00
2023-12-03T23:37:26.563Z,5.50
2023-12-03T23:42:29.226Z,6.67
2023-12-03T23:47:31.164Z,6.67
2023-12-03T23:52:33.172Z,7.00
2023-12-03T23:57:36.129Z,6.50
